createdAt,value
2023-04-14T00:00:11.960Z,29.25
2023-04-14T00:01:11.902Z,29.26
2023-04-14T00:02:11.966Z,29.21
2023-04-14T00:03:12.153Z,29.30
2023-04-14T00:04:12.057Z,29.31
2023-04-14T00:05:11.913Z,29.27
2023-04-14T00:06:11.855Z,29.31
2023-04-14T00:07:11.838Z,29.29
2023-04-14T00:08:11.876Z,29.26
2023-04-14T00:09:11.885Z,29.26
2023-04-14T00:10:11.960Z,29.25
2023-04-14T00:11:11.972Z,29.27
2023-04-14T00:12:11.852Z,29.18
2023-04-14T00:13:11.886Z,29.22
2023-04-14T00:14:12.000Z,29.23
2023-04-14T00:15:11.887Z,29.24
2023-04-14T00:16:11.860Z,29.28
2023-04-14T00:17:11.890Z,29.26
2023-04-14T00:18:11.792Z,29.30
2023-04-14T00:19:12.071Z,29.26
2023-04-14T00:20:11.802Z,29.32
2023-04-14T00:21:11.744Z,29.26
2023-04-14T00:22:11.782Z,29.23
2023-04-14T00:23:11.779Z,29.26
2023-04-14T00:24:11.749Z,29.28
2023-04-14T00:25:11.761Z,29.30
2023-04-14T00:26:11.741Z,29.28
2023-04-14T00:27:11.795Z,29.24
2023-04-14T00:28:11.739Z,29.27
2023-04-14T00:29:11.672Z,29.28
2023-04-14T00:30:11.682Z,29.27
2023-04-14T00:31:11.712Z,29.27
2023-04-14T00:32:11.677Z,29.30
2023-04-14T00:33:11.672Z,29.26
2023-04-14T00:34:11.686Z,29.28
2023-04-14T00:35:11.689Z,29.28
2023-04-14T00:36:11.694Z,29.28
2023-04-14T00:37:11.655Z,29.28
2023-04-14T00:38:11.634Z,29.27
2023-04-14T00:39:11.638Z,29.28
2023-04-14T00:40:11.602Z,29.29
2023-04-14T00:41:11.634Z,29.33
2023-04-14T00:42:11.645Z,29.35
2023-04-14T00:43:11.589Z,29.32
2023-04-14T00:44:11.642Z,29.30
2023-04-14T00:45:11.570Z,29.25
2023-04-14T00:46:11.662Z,29.32
2023-04-14T00:47:11.597Z,29.30
2023-04-14T00:48:11.575Z,29.29
2023-04-14T00:49:11.579Z,29.33
2023-04-14T00:50:11.586Z,29.35
2023-04-14T00:51:11.522Z,29.33
2023-04-14T00:52:11.603Z,29.32
2023-04-14T00:53:11.522Z,29.34
2023-04-14T00:54:11.572Z,29.31
2023-04-14T00:55:11.519Z,29.34
2023-04-14T00:56:11.529Z,29.31
2023-04-14T00:57:11.500Z,29.29
2023-04-14T00:58:11.495Z,29.37
2023-04-14T00:59:11.469Z,29.34
2023-04-14T01:00:11.499Z,29.31
2023-04-14T01:01:11.502Z,29.32
2023-04-14T01:02:11.496Z,29.31
2023-04-14T01:03:11.621Z,29.35
2023-04-14T01:04:11.527Z,29.37
2023-04-14T01:05:11.549Z,29.33
2023-04-14T01:06:11.462Z,29.34
2023-04-14T01:07:11.418Z,29.34
2023-04-14T01:08:11.455Z,29.34
2023-04-14T01:09:11.393Z,29.36
2023-04-14T01:10:11.409Z,29.39
2023-04-14T01:11:11.370Z,29.36
2023-04-14T01:12:11.735Z,29.36
2023-04-14T01:13:11.536Z,29.34
2023-04-14T01:14:11.396Z,29.35
2023-04-14T01:15:11.451Z,29.37
2023-04-14T01:16:11.406Z,29.36
2023-04-14T01:17:11.359Z,29.34
2023-04-14T01:18:11.376Z,29.33
2023-04-14T01:19:11.359Z,29.36
2023-04-14T01:20:11.362Z,29.37
2023-04-14T01:21:11.341Z,29.39
2023-04-14T01:22:11.294Z,29.41
2023-04-14T01:23:11.331Z,29.39
2023-04-14T01:24:11.330Z,29.39
2023-04-14T01:25:11.401Z,29.38
2023-04-14T01:26:11.601Z,29.36
2023-04-14T01:27:11.310Z,29.38
2023-04-14T01:28:11.361Z,29.37
2023-04-14T01:29:11.315Z,29.38
2023-04-14T01:30:11.343Z,29.38
2023-04-14T01:31:11.307Z,29.38
2023-04-14T01:32:11.246Z,29.37
2023-04-14T01:33:11.246Z,29.37
2023-04-14T01:34:11.250Z,29.36
2023-04-14T01:35:11.226Z,29.36
2023-04-14T01:36:11.191Z,29.39
2023-04-14T01:37:11.192Z,29.38
2023-04-14T01:38:11.238Z,29.42
2023-04-14T01:39:11.231Z,29.40
2023-04-14T01:40:11.250Z,29.42
2023-04-14T01:41:11.279Z,29.42
2023-04-14T01:42:11.289Z,29.42
2023-04-14T01:43:11.307Z,29.41
2023-04-14T01:44:11.460Z,29.38
2023-04-14T01:45:11.342Z,29.37
2023-04-14T01:46:11.381Z,29.41
2023-04-14T01:47:11.352Z,29.39
2023-04-14T01:48:11.759Z,29.41
2023-04-14T01:49:11.421Z,29.43
2023-04-14T01:50:11.476Z,29.39
2023-04-14T01:51:11.394Z,29.43
2023-04-14T01:52:11.408Z,29.42
2023-04-14T01:53:11.428Z,29.37
2023-04-14T01:54:11.458Z,29.39
2023-04-14T01:55:11.462Z,29.42
2023-04-14T01:56:11.464Z,29.41
2023-04-14T01:57:11.521Z,29.41
2023-04-14T01:58:11.540Z,29.40
2023-04-14T01:59:11.563Z,29.42
2023-04-14T02:00:11.595Z,29.38
2023-04-14T02:01:11.618Z,29.40
2023-04-14T02:02:11.612Z,29.37
2023-04-14T02:03:11.690Z,29.41
2023-04-14T02:04:11.713Z,29.43
2023-04-14T02:05:11.672Z,29.41
2023-04-14T02:06:11.665Z,29.43
2023-04-14T02:07:11.673Z,29.43
2023-04-14T02:08:11.696Z,29.41
2023-04-14T02:09:11.716Z,29.42
2023-04-14T02:10:11.804Z,29.42
2023-04-14T02:11:11.936Z,29.44
2023-04-14T02:12:11.807Z,29.44
2023-04-14T02:13:11.939Z,29.42
2023-04-14T02:14:11.870Z,29.40
2023-04-14T02:15:11.863Z,29.40
2023-04-14T02:16:12.026Z,29.43
2023-04-14T02:17:11.862Z,29.46
2023-04-14T02:18:12.020Z,29.46
2023-04-14T02:19:11.883Z,29.41
2023-04-14T02:20:11.892Z,29.40
2023-04-14T02:21:11.908Z,29.43
2023-04-14T02:22:11.956Z,29.42
2023-04-14T02:23:11.966Z,29.42
2023-04-14T02:24:11.974Z,29.44
2023-04-14T02:25:12.010Z,29.41
2023-04-14T02:26:12.122Z,29.44
2023-04-14T02:27:12.059Z,29.45
2023-04-14T02:28:12.231Z,29.43
2023-04-14T02:29:12.277Z,29.39
2023-04-14T02:30:12.148Z,29.45
2023-04-14T02:31:12.148Z,29.46
2023-04-14T02:32:12.228Z,29.47
2023-04-14T02:33:12.135Z,29.43
2023-04-14T02:34:12.342Z,29.46
2023-04-14T02:35:12.273Z,29.42
2023-04-14T02:36:12.262Z,29.40
2023-04-14T02:37:12.286Z,29.44
2023-04-14T02:38:12.211Z,29.45
2023-04-14T02:39:12.281Z,29.45
2023-04-14T02:40:12.275Z,29.44
2023-04-14T02:41:12.288Z,29.46
2023-04-14T02:42:12.399Z,29.46
2023-04-14T02:43:12.362Z,29.46
2023-04-14T02:44:12.379Z,29.45
2023-04-14T02:45:12.383Z,29.43
2023-04-14T02:46:12.488Z,29.43
2023-04-14T02:47:12.429Z,29.41
2023-04-14T02:48:12.436Z,29.43
2023-04-14T02:49:13.064Z,29.46
2023-04-14T02:50:12.451Z,29.41
2023-04-14T02:51:12.504Z,29.42
2023-04-14T02:52:12.498Z,29.46
2023-04-14T02:53:12.530Z,29.47
2023-04-14T02:54:12.563Z,29.45
2023-04-14T02:55:12.588Z,29.45
2023-04-14T02:56:12.601Z,29.50
2023-04-14T02:57:12.708Z,29.49
2023-04-14T02:58:12.836Z,29.47
2023-04-14T02:59:12.762Z,29.48
2023-04-14T03:00:12.842Z,29.46
2023-04-14T03:01:12.848Z,29.43
2023-04-14T03:02:12.850Z,29.47
2023-04-14T03:03:13.025Z,29.46
2023-04-14T03:04:12.782Z,29.50
2023-04-14T03:05:12.796Z,29.48
2023-04-14T03:06:12.800Z,29.42
2023-04-14T03:07:12.817Z,29.44
2023-04-14T03:08:12.853Z,29.45
2023-04-14T03:09:12.883Z,29.50
2023-04-14T03:10:12.898Z,29.41
2023-04-14T03:11:12.905Z,29.45
2023-04-14T03:12:12.915Z,29.47
2023-04-14T03:13:12.926Z,29.49
2023-04-14T03:14:12.967Z,29.49
2023-04-14T03:15:12.995Z,29.49
2023-04-14T03:16:13.112Z,29.46
2023-04-14T03:17:13.012Z,29.44
2023-04-14T03:18:13.047Z,29.43
2023-04-14T03:19:13.109Z,29.49
2023-04-14T03:20:13.058Z,29.45
2023-04-14T03:21:13.119Z,29.50
2023-04-14T03:22:13.128Z,29.53
2023-04-14T03:23:13.144Z,29.49
2023-04-14T03:24:13.133Z,29.47
2023-04-14T03:25:13.209Z,29.46
2023-04-14T03:26:13.205Z,29.46
2023-04-14T03:27:13.213Z,29.51
2023-04-14T03:28:13.223Z,29.50
2023-04-14T03:29:13.239Z,29.51
2023-04-14T03:30:13.274Z,29.47
2023-04-14T03:31:13.283Z,29.48
2023-04-14T03:32:13.280Z,29.49
2023-04-14T03:33:13.367Z,29.47
2023-04-14T03:34:13.365Z,29.45
2023-04-14T03:35:13.369Z,29.49
2023-04-14T03:36:13.386Z,29.45
2023-04-14T03:37:13.378Z,29.48
2023-04-14T03:38:13.419Z,29.49
2023-04-14T03:39:13.445Z,29.47
2023-04-14T03:40:13.433Z,29.51
2023-04-14T03:41:13.476Z,29.51
2023-04-14T03:42:13.524Z,29.51
2023-04-14T03:43:13.522Z,29.51
2023-04-14T03:44:13.684Z,29.50
2023-04-14T03:45:13.547Z,29.47
2023-04-14T03:46:13.659Z,29.53
2023-04-14T03:47:13.597Z,29.53
2023-04-14T03:48:13.587Z,29.48
2023-04-14T03:49:13.637Z,29.45
2023-04-14T03:50:13.653Z,29.45
2023-04-14T03:51:13.644Z,29.51
2023-04-14T03:52:13.697Z,29.49
2023-04-14T03:53:13.707Z,29.52
2023-04-14T03:54:13.744Z,29.50
2023-04-14T03:55:13.738Z,29.46
2023-04-14T03:56:13.753Z,29.50
2023-04-14T03:57:13.839Z,29.52
2023-04-14T03:58:13.832Z,29.52
2023-04-14T03:59:13.835Z,29.53
2023-04-14T04:00:13.852Z,29.51
2023-04-14T04:01:13.901Z,29.49
2023-04-14T04:02:13.962Z,29.51
2023-04-14T04:03:14.066Z,29.52
2023-04-14T04:04:14.333Z,29.42
2023-04-14T04:05:14.134Z,29.33
2023-04-14T04:06:14.038Z,29.20
2023-04-14T04:07:14.004Z,29.13
2023-04-14T04:08:14.038Z,29.08
2023-04-14T04:09:14.079Z,28.99
2023-04-14T04:10:14.123Z,28.89
2023-04-14T04:11:14.161Z,28.86
2023-04-14T04:12:14.175Z,28.80
2023-04-14T04:13:14.197Z,28.74
2023-04-14T04:14:14.215Z,28.67
2023-04-14T04:15:14.260Z,28.59
2023-04-14T04:16:14.298Z,28.59
2023-04-14T04:17:14.597Z,28.55
2023-04-14T04:18:14.643Z,28.49
2023-04-14T04:19:14.413Z,28.45
2023-04-14T04:20:14.523Z,28.42
2023-04-14T04:21:14.543Z,28.34
2023-04-14T04:22:14.619Z,28.30
2023-04-14T04:23:14.588Z,28.25
2023-04-14T04:24:14.804Z,28.22
2023-04-14T04:25:14.798Z,28.16
2023-04-14T04:26:14.708Z,28.13
2023-04-14T04:27:26.614Z,28.14
2023-04-14T04:28:15.744Z,28.07
2023-04-14T04:29:14.808Z,28.01
2023-04-14T04:30:14.851Z,27.97
2023-04-14T04:31:14.760Z,27.96
2023-04-14T04:32:14.813Z,27.99
2023-04-14T04:33:14.751Z,28.04
2023-04-14T04:34:14.703Z,27.89
2023-04-14T04:35:14.708Z,27.98
2023-04-14T04:36:14.679Z,27.98
2023-04-14T04:37:14.706Z,27.95
2023-04-14T04:38:14.643Z,27.95
2023-04-14T04:39:14.684Z,28.03
2023-04-14T04:40:14.738Z,28.11
2023-04-14T04:41:14.736Z,28.06
2023-04-14T04:42:14.772Z,28.11
2023-04-14T04:43:14.833Z,28.21
2023-04-14T04:44:14.832Z,28.20
2023-04-14T04:45:14.907Z,28.20
2023-04-14T04:46:14.979Z,28.22
2023-04-14T04:47:15.015Z,28.20
2023-04-14T04:48:14.985Z,28.21
2023-04-14T04:49:15.030Z,28.12
2023-04-14T04:50:16.025Z,28.19
2023-04-14T04:51:15.130Z,28.25
2023-04-14T04:52:15.164Z,28.23
2023-04-14T04:53:15.232Z,28.27
2023-04-14T04:54:15.230Z,28.30
2023-04-14T04:55:15.324Z,28.26
2023-04-14T04:56:15.598Z,28.31
2023-04-14T04:57:15.326Z,28.31
2023-04-14T04:58:15.363Z,28.26
2023-04-14T04:59:15.393Z,28.29
2023-04-14T05:00:15.410Z,28.37
2023-04-14T05:01:15.487Z,28.35
2023-04-14T05:02:15.489Z,28.37
2023-04-14T05:03:15.511Z,28.40
2023-04-14T05:04:15.582Z,28.42
2023-04-14T05:05:15.545Z,28.34
2023-04-14T05:06:15.602Z,28.43
2023-04-14T05:07:15.641Z,28.37
2023-04-14T05:08:15.660Z,28.42
2023-04-14T05:09:15.699Z,28.41
2023-04-14T05:10:15.724Z,28.37
2023-04-14T05:11:15.817Z,28.48
2023-04-14T05:12:15.804Z,28.46
2023-04-14T05:13:15.861Z,28.40
2023-04-14T05:14:15.870Z,28.44
2023-04-14T05:15:15.936Z,28.44
2023-04-14T05:16:16.017Z,28.42
2023-04-14T05:17:16.050Z,28.36
2023-04-14T05:18:16.059Z,28.37
2023-04-14T05:19:16.058Z,28.37
2023-04-14T05:20:16.080Z,28.44
2023-04-14T05:21:16.186Z,28.42
2023-04-14T05:22:16.161Z,28.42
2023-04-14T05:23:16.181Z,28.41
2023-04-14T05:24:16.192Z,28.46
2023-04-14T05:25:16.519Z,28.41
2023-04-14T05:26:39.036Z,28.36
2023-04-14T05:27:17.373Z,28.40
2023-04-14T05:28:16.350Z,28.40
2023-04-14T05:29:16.346Z,28.41
2023-04-14T05:30:16.336Z,28.37
2023-04-14T05:31:16.579Z,28.43
2023-04-14T05:32:16.285Z,28.42
2023-04-14T05:33:16.240Z,28.39
2023-04-14T05:34:16.190Z,28.41
2023-04-14T05:35:16.232Z,28.40
2023-04-14T05:36:16.207Z,28.45
2023-04-14T05:37:16.254Z,28.48
2023-04-14T05:38:16.197Z,28.50
2023-04-14T05:39:16.314Z,28.72
2023-04-14T05:40:16.131Z,28.92
2023-04-14T05:41:16.138Z,29.23
2023-04-14T05:42:17.317Z,29.36
2023-04-14T05:43:16.223Z,29.70
2023-04-14T05:44:16.246Z,29.73
2023-04-14T05:45:16.643Z,29.90
2023-04-14T05:46:16.385Z,30.00
2023-04-14T05:47:16.361Z,30.21
2023-04-14T05:48:16.418Z,30.38
2023-04-14T05:49:16.439Z,30.19
2023-04-14T05:50:16.481Z,30.14
2023-04-14T05:51:16.494Z,30.01
2023-04-14T05:52:16.519Z,29.84
2023-04-14T05:53:16.569Z,29.76
2023-04-14T05:54:16.629Z,29.68
2023-04-14T05:55:16.642Z,29.64
2023-04-14T05:56:16.653Z,29.54
2023-04-14T05:57:16.718Z,29.45
2023-04-14T05:58:16.763Z,29.41
2023-04-14T05:59:16.833Z,29.31
2023-04-14T06:00:16.878Z,29.23
2023-04-14T06:01:16.897Z,29.16
2023-04-14T06:02:16.978Z,29.07
2023-04-14T06:03:17.129Z,29.03
2023-04-14T06:04:17.224Z,29.01
2023-04-14T06:05:17.073Z,28.94
2023-04-14T06:06:17.088Z,28.93
2023-04-14T06:07:17.152Z,28.87
2023-04-14T06:08:17.224Z,28.83
2023-04-14T06:09:17.222Z,28.82
2023-04-14T06:10:17.257Z,28.75
2023-04-14T06:11:17.341Z,28.70
2023-04-14T06:12:17.381Z,28.69
2023-04-14T06:13:17.402Z,28.67
2023-04-14T06:14:17.664Z,28.64
2023-04-14T06:15:17.621Z,28.59
2023-04-14T06:16:17.544Z,28.56
2023-04-14T06:17:17.613Z,28.55
2023-04-14T06:18:17.673Z,28.49
2023-04-14T06:19:17.688Z,28.47
2023-04-14T06:20:17.739Z,28.44
2023-04-14T06:21:17.774Z,28.44
2023-04-14T06:22:17.820Z,28.34
2023-04-14T06:23:17.848Z,28.36
2023-04-14T06:24:17.887Z,28.32
2023-04-14T06:25:17.941Z,28.32
2023-04-14T06:26:18.015Z,28.33
2023-04-14T06:27:18.016Z,28.36
2023-04-14T06:28:18.027Z,28.33
2023-04-14T06:29:18.174Z,28.34
2023-04-14T06:30:18.132Z,28.36
2023-04-14T06:31:18.187Z,28.38
2023-04-14T06:32:18.340Z,28.38
2023-04-14T06:33:18.256Z,28.38
2023-04-14T06:34:18.272Z,28.40
2023-04-14T06:35:30.083Z,28.44
2023-04-14T06:36:19.301Z,28.47
2023-04-14T06:37:18.279Z,28.44
2023-04-14T06:38:18.292Z,28.50
2023-04-14T06:39:18.714Z,28.47
2023-04-14T06:40:18.668Z,28.49
2023-04-14T06:41:18.768Z,28.51
2023-04-14T06:42:18.662Z,28.54
2023-04-14T06:43:18.277Z,28.50
2023-04-14T06:44:18.238Z,28.46
2023-04-14T06:45:18.232Z,28.53
2023-04-14T06:46:18.285Z,28.50
2023-04-14T06:47:18.662Z,28.53
2023-04-14T06:48:18.215Z,28.51
2023-04-14T06:49:18.283Z,28.48
2023-04-14T06:50:18.206Z,28.56
2023-04-14T06:51:18.209Z,28.46
2023-04-14T06:52:18.805Z,28.51
2023-04-14T06:53:18.704Z,28.49
2023-04-14T06:54:18.643Z,28.49
2023-04-14T06:55:18.661Z,28.54
2023-04-14T06:56:18.666Z,28.49
2023-04-14T06:57:18.369Z,28.49
2023-04-14T06:58:18.708Z,28.52
2023-04-14T06:59:18.510Z,28.50
2023-04-14T07:00:18.482Z,28.55
2023-04-14T07:01:18.520Z,28.55
2023-04-14T07:02:18.639Z,28.50
2023-04-14T07:03:18.646Z,28.53
2023-04-14T07:04:18.639Z,28.60
2023-04-14T07:05:18.627Z,28.58
2023-04-14T07:06:18.627Z,28.50
2023-04-14T07:07:18.709Z,28.57
2023-04-14T07:08:19.147Z,28.59
2023-04-14T07:09:18.749Z,28.56
2023-04-14T07:10:18.749Z,28.55
2023-04-14T07:11:18.762Z,28.54
2023-04-14T07:12:18.825Z,28.56
2023-04-14T07:13:18.842Z,28.57
2023-04-14T07:14:18.891Z,28.60
2023-04-14T07:15:18.977Z,28.57
2023-04-14T07:16:18.969Z,28.54
2023-04-14T07:17:19.022Z,28.61
2023-04-14T07:18:18.957Z,28.57
2023-04-14T07:19:19.008Z,28.59
2023-04-14T07:20:19.017Z,28.61
2023-04-14T07:21:19.085Z,28.58
2023-04-14T07:22:19.064Z,28.59
2023-04-14T07:23:19.116Z,28.62
2023-04-14T07:24:19.103Z,28.58
2023-04-14T07:25:19.175Z,28.53
2023-04-14T07:26:19.684Z,28.58
2023-04-14T07:27:19.322Z,28.62
2023-04-14T07:28:19.288Z,28.58
2023-04-14T07:29:19.320Z,28.69
2023-04-14T07:30:19.332Z,28.86
2023-04-14T07:31:19.370Z,29.31
2023-04-14T07:32:19.427Z,29.79
2023-04-14T07:33:19.451Z,29.78
2023-04-14T07:34:19.461Z,29.39
2023-04-14T07:35:19.434Z,29.26
2023-04-14T07:36:19.497Z,29.15
2023-04-14T07:37:19.505Z,29.18
2023-04-14T07:38:19.512Z,29.12
2023-04-14T07:39:22.778Z,29.14
2023-04-14T07:40:19.468Z,29.11
2023-04-14T07:41:19.469Z,29.08
2023-04-14T07:42:19.487Z,29.01
2023-04-14T07:43:19.484Z,28.99
2023-04-14T07:44:19.507Z,28.91
2023-04-14T07:45:19.668Z,28.88
2023-04-14T07:46:19.486Z,28.84
2023-04-14T07:47:19.548Z,28.78
2023-04-14T07:48:35.197Z,29.19
2023-04-14T07:49:19.429Z,29.00
2023-04-14T07:50:19.907Z,28.70
2023-04-14T07:51:19.390Z,28.38
2023-04-14T07:52:19.366Z,28.17
2023-04-14T07:53:19.401Z,27.99
2023-04-14T07:54:19.426Z,28.14
2023-04-14T07:55:19.665Z,28.21
2023-04-14T07:56:19.400Z,28.34
2023-04-14T07:57:19.377Z,28.53
2023-04-14T07:58:19.396Z,28.57
2023-04-14T07:59:19.407Z,28.65
2023-04-14T08:00:19.703Z,28.67
2023-04-14T08:01:19.323Z,28.71
2023-04-14T08:02:19.442Z,28.77
2023-04-14T08:03:19.425Z,28.78
2023-04-14T08:04:19.386Z,28.82
2023-04-14T08:05:19.385Z,28.88
2023-04-14T08:06:19.351Z,28.88
2023-04-14T08:07:19.302Z,28.91
2023-04-14T08:08:19.318Z,28.93
2023-04-14T08:09:19.295Z,28.94
2023-04-14T08:10:19.298Z,28.96
2023-04-14T08:11:19.279Z,28.96
2023-04-14T08:12:19.286Z,28.97
2023-04-14T08:13:19.304Z,28.98
2023-04-14T08:14:19.252Z,29.04
2023-04-14T08:15:19.242Z,29.03
2023-04-14T08:16:19.402Z,29.03
2023-04-14T08:17:19.208Z,29.07
2023-04-14T08:18:19.275Z,29.05
2023-04-14T08:19:19.268Z,29.05
2023-04-14T08:20:19.234Z,29.08
2023-04-14T08:21:19.335Z,29.09
2023-04-14T08:22:19.192Z,29.08
2023-04-14T08:23:19.184Z,29.04
2023-04-14T08:24:19.715Z,29.05
2023-04-14T08:25:19.731Z,29.03
2023-04-14T08:26:19.210Z,29.81
2023-04-14T08:27:19.221Z,29.73
2023-04-14T08:28:19.167Z,29.53
2023-04-14T08:29:19.249Z,29.55
2023-04-14T08:30:19.169Z,29.50
2023-04-14T08:31:19.216Z,29.66
2023-04-14T08:32:19.195Z,29.73
2023-04-14T08:33:19.288Z,29.69
2023-04-14T08:34:21.795Z,30.03
2023-04-14T08:35:37.018Z,29.07
2023-04-14T08:36:20.109Z,27.76
2023-04-14T08:37:19.146Z,27.68
2023-04-14T08:38:19.067Z,27.41
2023-04-14T08:39:19.101Z,28.26
2023-04-14T08:40:19.058Z,28.42
2023-04-14T08:41:19.179Z,28.84
2023-04-14T08:42:19.068Z,29.33
2023-04-14T08:43:19.231Z,29.40
2023-04-14T08:44:19.028Z,29.68
2023-04-14T08:45:19.055Z,30.41
2023-04-14T08:46:19.116Z,30.06
2023-04-14T08:47:19.008Z,30.53
2023-04-14T08:48:19.069Z,30.40
2023-04-14T08:49:18.959Z,30.30
2023-04-14T08:50:19.017Z,30.39
2023-04-14T08:51:18.992Z,30.28
2023-04-14T08:52:18.981Z,30.30
2023-04-14T08:53:19.254Z,30.29
2023-04-14T08:54:18.940Z,30.31
2023-04-14T08:55:18.945Z,30.27
2023-04-14T08:56:18.958Z,30.28
2023-04-14T08:57:18.970Z,30.32
2023-04-14T08:58:18.914Z,30.40
2023-04-14T08:59:18.942Z,30.45
2023-04-14T09:00:18.935Z,30.44
2023-04-14T09:01:18.912Z,30.48
2023-04-14T09:02:18.965Z,31.22
2023-04-14T09:03:19.014Z,31.13
2023-04-14T09:04:18.993Z,31.01
2023-04-14T09:05:18.899Z,31.48
2023-04-14T09:06:18.873Z,31.00
2023-04-14T09:07:18.883Z,30.88
2023-04-14T09:08:18.914Z,30.85
2023-04-14T09:09:18.843Z,30.84
2023-04-14T09:10:18.853Z,30.90
2023-04-14T09:11:18.867Z,30.96
2023-04-14T09:12:18.905Z,31.06
2023-04-14T09:13:18.823Z,31.11
2023-04-14T09:14:19.237Z,31.40
2023-04-14T09:15:18.838Z,31.57
2023-04-14T09:16:18.888Z,31.34
2023-04-14T09:17:18.906Z,31.33
2023-04-14T09:18:18.846Z,31.15
2023-04-14T09:19:18.925Z,31.21
2023-04-14T09:20:35.717Z,31.27
2023-04-14T09:21:50.968Z,31.36
2023-04-14T09:22:19.854Z,31.51
2023-04-14T09:23:18.834Z,31.55
2023-04-14T09:24:18.838Z,31.40
2023-04-14T09:25:18.856Z,31.50
2023-04-14T09:26:18.811Z,31.52
2023-04-14T09:27:18.810Z,31.59
2023-04-14T09:28:18.812Z,31.52
2023-04-14T09:29:19.230Z,31.57
2023-04-14T09:30:18.778Z,31.58
2023-04-14T09:31:18.785Z,32.09
2023-04-14T09:32:18.805Z,32.23
2023-04-14T09:33:18.825Z,32.04
2023-04-14T09:34:18.854Z,31.89
2023-04-14T09:35:18.783Z,31.93
2023-04-14T09:36:18.787Z,32.19
2023-04-14T09:37:18.728Z,31.98
2023-04-14T09:38:18.752Z,31.81
2023-04-14T09:39:18.748Z,31.76
2023-04-14T09:40:18.713Z,31.79
2023-04-14T09:41:18.708Z,31.66
2023-04-14T09:42:18.707Z,31.82
2023-04-14T09:43:18.671Z,31.75
2023-04-14T09:44:18.667Z,31.76
2023-04-14T09:45:18.727Z,31.80
2023-04-14T09:46:18.708Z,31.81
2023-04-14T09:47:18.661Z,31.81
2023-04-14T09:48:18.671Z,32.22
2023-04-14T09:49:18.676Z,32.09
2023-04-14T09:50:18.657Z,32.07
2023-04-14T09:51:18.618Z,32.09
2023-04-14T09:52:18.624Z,32.01
2023-04-14T09:53:18.665Z,32.04
2023-04-14T09:54:18.713Z,31.98
2023-04-14T09:55:18.788Z,31.91
2023-04-14T09:56:18.854Z,31.93
2023-04-14T09:57:18.905Z,31.87
2023-04-14T09:58:19.034Z,31.80
2023-04-14T09:59:19.015Z,31.75
2023-04-14T10:00:19.153Z,31.71
2023-04-14T10:01:19.209Z,31.69
2023-04-14T10:02:19.273Z,31.65
2023-04-14T10:03:19.328Z,31.64
2023-04-14T10:04:19.937Z,31.57
2023-04-14T10:05:19.737Z,31.53
2023-04-14T10:06:19.444Z,31.52
2023-04-14T10:07:19.641Z,31.43
2023-04-14T10:08:19.510Z,31.43
2023-04-14T10:09:19.565Z,31.16
2023-04-14T10:10:19.775Z,31.39
2023-04-14T10:11:19.723Z,31.43
2023-04-14T10:12:19.718Z,31.40
2023-04-14T10:13:19.805Z,31.40
2023-04-14T10:14:19.832Z,31.38
2023-04-14T10:15:19.907Z,31.38
2023-04-14T10:16:20.007Z,31.23
2023-04-14T10:17:20.033Z,31.29
2023-04-14T10:18:20.067Z,31.27
2023-04-14T10:19:20.135Z,31.24
2023-04-14T10:20:20.138Z,31.20
2023-04-14T10:21:20.233Z,31.18
2023-04-14T10:22:20.259Z,31.12
2023-04-14T10:23:20.316Z,31.06
2023-04-14T10:24:20.316Z,31.06
2023-04-14T10:25:20.346Z,31.04
2023-04-14T10:26:20.420Z,31.05
2023-04-14T10:27:20.444Z,30.99
2023-04-14T10:28:20.758Z,30.93
2023-04-14T10:29:20.519Z,31.02
2023-04-14T10:30:20.559Z,30.97
2023-04-14T10:31:20.673Z,30.95
2023-04-14T10:32:20.715Z,31.09
2023-04-14T10:33:20.705Z,31.22
2023-04-14T10:34:20.689Z,31.35
2023-04-14T10:35:20.767Z,31.36
2023-04-14T10:36:21.276Z,31.36
2023-04-14T10:37:20.787Z,31.40
2023-04-14T10:38:20.766Z,31.46
2023-04-14T10:39:20.828Z,31.39
2023-04-14T10:40:22.779Z,31.45
2023-04-14T10:41:20.903Z,31.39
2023-04-14T10:42:20.909Z,31.32
2023-04-14T10:43:20.910Z,31.25
2023-04-14T10:44:20.961Z,31.23
2023-04-14T10:45:20.972Z,31.21
2023-04-14T10:46:20.994Z,31.15
2023-04-14T10:47:21.002Z,31.30
2023-04-14T10:48:21.022Z,31.20
2023-04-14T10:49:21.052Z,31.29
2023-04-14T10:50:21.067Z,31.32
2023-04-14T10:51:21.298Z,31.35
2023-04-14T10:52:21.087Z,31.35
2023-04-14T10:53:21.133Z,31.35
2023-04-14T10:54:21.153Z,31.35
2023-04-14T10:55:21.168Z,31.34
2023-04-14T10:56:21.174Z,31.33
2023-04-14T10:57:21.186Z,31.36
2023-04-14T10:58:21.207Z,31.36
2023-04-14T10:59:21.235Z,31.31
2023-04-14T11:00:21.251Z,31.30
2023-04-14T11:01:21.230Z,31.26
2023-04-14T11:02:21.330Z,31.27
2023-04-14T11:03:21.344Z,31.21
2023-04-14T11:04:21.356Z,31.15
2023-04-14T11:05:21.274Z,31.19
2023-04-14T11:06:21.320Z,31.17
2023-04-14T11:07:21.336Z,31.16
2023-04-14T11:08:21.388Z,31.14
2023-04-14T11:09:21.336Z,31.19
2023-04-14T11:10:21.434Z,31.21
2023-04-14T11:11:21.356Z,31.18
2023-04-14T11:12:21.366Z,31.18
2023-04-14T11:13:21.831Z,31.16
2023-04-14T11:14:21.366Z,31.12
2023-04-14T11:15:21.438Z,31.62
2023-04-14T11:16:21.437Z,31.71
2023-04-14T11:17:21.533Z,31.67
2023-04-14T11:18:21.917Z,31.73
2023-04-14T11:19:21.768Z,31.55
2023-04-14T11:20:21.502Z,31.39
2023-04-14T11:21:21.788Z,31.36
2023-04-14T11:22:21.492Z,31.26
2023-04-14T11:23:21.509Z,31.19
2023-04-14T11:24:21.538Z,31.13
2023-04-14T11:25:23.995Z,31.08
2023-04-14T11:26:21.572Z,31.00
2023-04-14T11:27:21.525Z,30.94
2023-04-14T11:28:21.513Z,30.87
2023-04-14T11:29:21.496Z,30.70
2023-04-14T11:30:21.501Z,30.63
2023-04-14T11:31:23.316Z,30.64
2023-04-14T11:32:21.491Z,30.53
2023-04-14T11:33:21.461Z,30.50
2023-04-14T11:34:21.426Z,30.42
2023-04-14T11:35:21.446Z,30.36
2023-04-14T11:36:21.479Z,30.28
2023-04-14T11:37:22.667Z,30.24
2023-04-14T11:38:21.429Z,30.19
2023-04-14T11:39:21.404Z,30.13
2023-04-14T11:40:21.403Z,30.13
2023-04-14T11:41:21.375Z,30.14
2023-04-14T11:42:21.419Z,30.02
2023-04-14T11:43:22.836Z,30.02
2023-04-14T11:44:21.459Z,29.98
2023-04-14T11:45:21.372Z,29.90
2023-04-14T11:46:21.434Z,29.84
2023-04-14T11:47:21.508Z,29.83
2023-04-14T11:48:21.435Z,29.72
2023-04-14T11:49:22.286Z,29.74
2023-04-14T11:50:21.524Z,29.66
2023-04-14T11:51:21.552Z,29.65
2023-04-14T11:52:21.556Z,29.56
2023-04-14T11:53:21.590Z,29.54
2023-04-14T11:54:21.703Z,29.50
2023-04-14T11:55:21.674Z,29.46
2023-04-14T11:56:21.711Z,29.46
2023-04-14T11:57:21.732Z,29.47
2023-04-14T11:58:21.739Z,29.45
2023-04-14T11:59:21.772Z,29.44
2023-04-14T12:00:21.829Z,29.45
2023-04-14T12:01:21.826Z,29.43
2023-04-14T12:02:22.023Z,29.42
2023-04-14T12:03:22.103Z,29.44
2023-04-14T12:04:22.046Z,29.43
2023-04-14T12:05:22.014Z,29.44
2023-04-14T12:06:21.995Z,29.43
2023-04-14T12:07:22.056Z,29.42
2023-04-14T12:08:22.046Z,29.53
2023-04-14T12:09:22.066Z,29.28
2023-04-14T12:10:22.118Z,28.93
2023-04-14T12:11:22.795Z,28.78
2023-04-14T12:12:22.239Z,28.75
2023-04-14T12:13:22.300Z,28.79
2023-04-14T12:14:22.376Z,28.85
2023-04-14T12:15:23.739Z,28.84
2023-04-14T12:16:22.355Z,28.87
2023-04-14T12:17:22.362Z,29.08
2023-04-14T12:18:22.803Z,29.01
2023-04-14T12:19:22.335Z,29.12
2023-04-14T12:20:22.356Z,29.18
2023-04-14T12:21:22.334Z,29.29
2023-04-14T12:22:22.381Z,29.61
2023-04-14T12:23:22.419Z,29.70
2023-04-14T12:24:22.378Z,29.72
2023-04-14T12:25:22.359Z,29.76
2023-04-14T12:26:22.382Z,29.75
2023-04-14T12:27:22.401Z,29.81
2023-04-14T12:28:22.425Z,29.81
2023-04-14T12:29:22.403Z,29.83
2023-04-14T12:30:22.460Z,29.82
2023-04-14T12:31:22.559Z,29.80
2023-04-14T12:32:22.811Z,29.82
2023-04-14T12:33:22.635Z,29.83
2023-04-14T12:34:22.710Z,29.75
2023-04-14T12:35:22.792Z,29.79
2023-04-14T12:36:25.490Z,29.77
2023-04-14T12:37:23.794Z,29.78
2023-04-14T12:38:22.783Z,29.78
2023-04-14T12:39:22.786Z,29.78
2023-04-14T12:40:22.765Z,29.76
2023-04-14T12:41:22.761Z,29.74
2023-04-14T12:42:22.739Z,29.75
2023-04-14T12:43:22.722Z,29.76
2023-04-14T12:44:22.730Z,29.77
2023-04-14T12:45:22.741Z,29.75
2023-04-14T12:46:22.803Z,29.79
2023-04-14T12:47:22.754Z,29.78
2023-04-14T12:48:22.771Z,29.77
2023-04-14T12:49:22.730Z,29.80
2023-04-14T12:50:22.734Z,29.79
2023-04-14T12:51:22.764Z,29.80
2023-04-14T12:52:22.819Z,29.81